Impacts TAF Board INFO
FOR SITUATIONAL AWARENESS. NOT TO BE USED FOR FLIGHT PLANNING PURPOSES.
IDs:

KFLL - Ft Lauderdale-Hollyw, FL, US

Issued at 1121 UTC 19 Jan 2018
Updated at 1314 UTC 19 Jan 2018
Potential Impact None Slight Moderate High
Time1253Z 19/14Z 19/15Z 19/16Z 19/17Z 19/18Z 19/19Z 19/20Z 19/21Z 19/22Z 19/23Z 20/00Z 20/01Z 20/02Z>>
Type OBS PRVL PRVL PRVL PRVL PRVL PRVL PRVL PRVL PRVL PRVL PRVL PRVL PRVL
VIS 10 >6 >6 >6 >6 >6 >6 >6 >6 >6 >6 >6 >6 >6
CIG 250 -- -- -- -- -- -- -- -- -- -- -- -- --
Cover BKN SCT SCT SCT SCT SCT SCT SCT SCT SCT SCT SCT SCT SCT
FltCat VFR VFR VFR VFR VFR VFR VFR VFR VFR VFR VFR VFR VFR VFR
WX -- -- -- -- -- -- -- -- -- -- -- -- -- --
WDir 350 60 60 60 60 60 60 60 60 60 60 60 60 60
WSpd 6 8 8 8 8 8 8 8 8 8 8 5 5 5
WGst -- -- -- -- -- -- -- -- -- -- -- -- -- --

Raw TAF
KFLL 191121Z 1912/2018 34005KT P6SM FEW025 SCT250
  FM191400 06008KT P6SM SCT040 SCT250
  FM200000 06005KT P6SM FEW025 SCT250
  FM201400 08010KT P6SM SCT035 SCT250


Raw METAR
KFLL 191253Z 35006KT 10SM FEW040 FEW180 BKN250 09/09 A3027 RMK AO2 SLP248 T00940094
KFLL 191153Z 32005KT 10SM FEW033 BKN250 09/09 A3025 RMK AO2 SLP244 T00890089 10094 20089 53004
KFLL 191053Z 34005KT 10SM BKN250 09/09 A3024 RMK AO2 SLP239 T00890089

METAR Board
Radar Display
Forecast Discussion

FOR SITUATIONAL AWARENESS. NOT TO BE USED FOR FLIGHT PLANNING PURPOSES.